sensor_id;sensor_type;location;lat;lon;timestamp;P1;durP1;ratioP1;P2;durP2;ratioP2
77105;SDS011;66057;54.718;18.426;2024-01-16T00:00:07;1.00;;;0.40;;
77105;SDS011;66057;54.718;18.426;2024-01-16T00:02:35;0.50;;;0.50;;
77105;SDS011;66057;54.718;18.426;2024-01-16T00:05:04;0.77;;;0.60;;
77105;SDS011;66057;54.718;18.426;2024-01-16T00:07:39;4.47;;;0.93;;
77105;SDS011;66057;54.718;18.426;2024-01-16T00:10:07;0.60;;;0.60;;
77105;SDS011;66057;54.718;18.426;2024-01-16T00:12:34;0.95;;;0.45;;
77105;SDS011;66057;54.718;18.426;2024-01-16T00:15:08;1.23;;;1.10;;
77105;SDS011;66057;54.718;18.426;2024-01-16T00:17:36;0.28;;;0.22;;
77105;SDS011;66057;54.718;18.426;2024-01-16T00:20:08;0.30;;;0.30;;
77105;SDS011;66057;54.718;18.426;2024-01-16T00:22:35;0.60;;;0.40;;
77105;SDS011;66057;54.718;18.426;2024-01-16T00:25:02;0.50;;;0.50;;
77105;SDS011;66057;54.718;18.426;2024-01-16T00:27:30;1.33;;;0.60;;
77105;SDS011;66057;54.718;18.426;2024-01-16T00:30:01;0.60;;;0.60;;
77105;SDS011;66057;54.718;18.426;2024-01-16T00:32:28;0.40;;;0.40;;
77105;SDS011;66057;54.718;18.426;2024-01-16T00:34:57;1.75;;;0.63;;
77105;SDS011;66057;54.718;18.426;2024-01-16T00:37:27;0.63;;;0.63;;
77105;SDS011;66057;54.718;18.426;2024-01-16T00:39:54;2.55;;;0.65;;
77105;SDS011;66057;54.718;18.426;2024-01-16T00:42:26;0.63;;;0.63;;
77105;SDS011;66057;54.718;18.426;2024-01-16T00:44:52;0.47;;;0.47;;
77105;SDS011;66057;54.718;18.426;2024-01-16T00:47:25;1.48;;;0.30;;
77105;SDS011;66057;54.718;18.426;2024-01-16T00:49:58;0.50;;;0.47;;
77105;SDS011;66057;54.718;18.426;2024-01-16T00:52:35;0.75;;;0.55;;
77105;SDS011;66057;54.718;18.426;2024-01-16T00:55:10;0.30;;;0.30;;
77105;SDS011;66057;54.718;18.426;2024-01-16T00:57:41;1.38;;;0.63;;
77105;SDS011;66057;54.718;18.426;2024-01-16T01:00:11;0.13;;;0.13;;
77105;SDS011;66057;54.718;18.426;2024-01-16T01:02:40;0.75;;;0.75;;
77105;SDS011;66057;54.718;18.426;2024-01-16T01:05:09;0.35;;;0.35;;
77105;SDS011;66057;54.718;18.426;2024-01-16T01:07:36;0.75;;;0.75;;
77105;SDS011;66057;54.718;18.426;2024-01-16T01:10:02;2.30;;;0.80;;
77105;SDS011;66057;54.718;18.426;2024-01-16T01:12:38;1.70;;;0.40;;
77105;SDS011;66057;54.718;18.426;2024-01-16T01:15:03;1.00;;;0.55;;
77105;SDS011;66057;54.718;18.426;2024-01-16T01:17:30;1.30;;;0.50;;
77105;SDS011;66057;54.718;18.426;2024-01-16T01:19:59;0.85;;;0.73;;
77105;SDS011;66057;54.718;18.426;2024-01-16T01:22:27;0.63;;;0.40;;
77105;SDS011;66057;54.718;18.426;2024-01-16T01:24:58;4.18;;;0.22;;
77105;SDS011;66057;54.718;18.426;2024-01-16T01:27:25;2.05;;;0.50;;
77105;SDS011;66057;54.718;18.426;2024-01-16T01:29:57;0.77;;;0.77;;
77105;SDS011;66057;54.718;18.426;2024-01-16T01:32:28;0.77;;;0.77;;
77105;SDS011;66057;54.718;18.426;2024-01-16T01:34:54;8.25;;;1.33;;
77105;SDS011;66057;54.718;18.426;2024-01-16T01:37:22;0.52;;;0.38;;
77105;SDS011;66057;54.718;18.426;2024-01-16T01:39:48;2.17;;;0.30;;
77105;SDS011;66057;54.718;18.426;2024-01-16T01:42:15;0.60;;;0.60;;
77105;SDS011;66057;54.718;18.426;2024-01-16T01:44:41;0.30;;;0.30;;
77105;SDS011;66057;54.718;18.426;2024-01-16T01:47:10;0.50;;;0.50;;
77105;SDS011;66057;54.718;18.426;2024-01-16T01:49:36;1.60;;;0.82;;
77105;SDS011;66057;54.718;18.426;2024-01-16T01:52:08;4.13;;;0.50;;
77105;SDS011;66057;54.718;18.426;2024-01-16T01:54:36;0.68;;;0.68;;
77105;SDS011;66057;54.718;18.426;2024-01-16T01:57:09;2.25;;;0.15;;
77105;SDS011;66057;54.718;18.426;2024-01-16T01:59:41;0.22;;;0.17;;
77105;SDS011;66057;54.718;18.426;2024-01-16T02:02:13;1.80;;;0.00;;
77105;SDS011;66057;54.718;18.426;2024-01-16T02:04:43;1.13;;;1.13;;
77105;SDS011;66057;54.718;18.426;2024-01-16T02:07:14;0.30;;;0.30;;
77105;SDS011;66057;54.718;18.426;2024-01-16T02:09:41;0.60;;;0.60;;
77105;SDS011;66057;54.718;18.426;2024-01-16T02:12:07;2.50;;;0.95;;
77105;SDS011;66057;54.718;18.426;2024-01-16T02:14:35;0.40;;;0.40;;
77105;SDS011;66057;54.718;18.426;2024-01-16T02:17:04;1.05;;;0.03;;
77105;SDS011;66057;54.718;18.426;2024-01-16T02:19:31;0.60;;;0.52;;
77105;SDS011;66057;54.718;18.426;2024-01-16T02:22:05;0.57;;;0.40;;
77105;SDS011;66057;54.718;18.426;2024-01-16T02:24:42;1.10;;;0.57;;
77105;SDS011;66057;54.718;18.426;2024-01-16T02:27:11;0.50;;;0.50;;
77105;SDS011;66057;54.718;18.426;2024-01-16T02:29:41;0.85;;;0.60;;
77105;SDS011;66057;54.718;18.426;2024-01-16T02:32:10;0.52;;;0.52;;
77105;SDS011;66057;54.718;18.426;2024-01-16T02:34:38;1.00;;;1.00;;
77105;SDS011;66057;54.718;18.426;2024-01-16T02:37:04;1.25;;;0.65;;
77105;SDS011;66057;54.718;18.426;2024-01-16T02:39:30;0.30;;;0.13;;
77105;SDS011;66057;54.718;18.426;2024-01-16T02:41:57;0.82;;;0.77;;
77105;SDS011;66057;54.718;18.426;2024-01-16T02:44:27;2.50;;;1.00;;
77105;SDS011;66057;54.718;18.426;2024-01-16T02:46:53;1.02;;;0.60;;
77105;SDS011;66057;54.718;18.426;2024-01-16T02:49:19;0.40;;;0.20;;
77105;SDS011;66057;54.718;18.426;2024-01-16T02:51:45;0.40;;;0.40;;
77105;SDS011;66057;54.718;18.426;2024-01-16T02:54:11;0.68;;;0.13;;
77105;SDS011;66057;54.718;18.426;2024-01-16T02:56:37;0.50;;;0.50;;
77105;SDS011;66057;54.718;18.426;2024-01-16T02:59:03;0.85;;;0.80;;
77105;SDS011;66057;54.718;18.426;2024-01-16T03:01:29;0.75;;;0.57;;
77105;SDS011;66057;54.718;18.426;2024-01-16T03:03:55;0.25;;;0.17;;
77105;SDS011;66057;54.718;18.426;2024-01-16T03:06:22;0.32;;;0.32;;
77105;SDS011;66057;54.718;18.426;2024-01-16T03:08:49;0.10;;;0.00;;
77105;SDS011;66057;54.718;18.426;2024-01-16T03:11:15;0.38;;;0.38;;
77105;SDS011;66057;54.718;18.426;2024-01-16T03:13:44;0.20;;;0.10;;
77105;SDS011;66057;54.718;18.426;2024-01-16T03:16:14;0.13;;;0.13;;
77105;SDS011;66057;54.718;18.426;2024-01-16T03:18:39;2.03;;;0.60;;
77105;SDS011;66057;54.718;18.426;2024-01-16T03:21:06;0.85;;;0.50;;
77105;SDS011;66057;54.718;18.426;2024-01-16T03:23:33;0.75;;;0.75;;
77105;SDS011;66057;54.718;18.426;2024-01-16T03:25:59;0.47;;;0.38;;
77105;SDS011;66057;54.718;18.426;2024-01-16T03:28:26;0.32;;;0.32;;
77105;SDS011;66057;54.718;18.426;2024-01-16T03:30:53;0.05;;;0.05;;
77105;SDS011;66057;54.718;18.426;2024-01-16T03:33:19;0.30;;;0.30;;
77105;SDS011;66057;54.718;18.426;2024-01-16T03:35:45;0.32;;;0.15;;
77105;SDS011;66057;54.718;18.426;2024-01-16T03:38:12;1.90;;;0.30;;
77105;SDS011;66057;54.718;18.426;2024-01-16T03:40:44;0.93;;;0.20;;
77105;SDS011;66057;54.718;18.426;2024-01-16T03:43:11;3.83;;;0.50;;
77105;SDS011;66057;54.718;18.426;2024-01-16T03:45:37;0.28;;;0.22;;
77105;SDS011;66057;54.718;18.426;2024-01-16T03:48:04;0.47;;;0.47;;
77105;SDS011;66057;54.718;18.426;2024-01-16T03:50:31;0.52;;;0.52;;
77105;SDS011;66057;54.718;18.426;2024-01-16T03:52:56;0.77;;;0.77;;
77105;SDS011;66057;54.718;18.426;2024-01-16T03:55:23;3.33;;;0.73;;
77105;SDS011;66057;54.718;18.426;2024-01-16T03:57:49;0.40;;;0.40;;
77105;SDS011;66057;54.718;18.426;2024-01-16T04:00:17;0.82;;;0.82;;
77105;SDS011;66057;54.718;18.426;2024-01-16T04:02:42;0.68;;;0.68;;
77105;SDS011;66057;54.718;18.426;2024-01-16T04:05:09;1.75;;;0.15;;
77105;SDS011;66057;54.718;18.426;2024-01-16T04:07:35;0.43;;;0.43;;
77105;SDS011;66057;54.718;18.426;2024-01-16T04:10:06;0.57;;;0.57;;
77105;SDS011;66057;54.718;18.426;2024-01-16T04:12:32;0.90;;;0.47;;
77105;SDS011;66057;54.718;18.426;2024-01-16T04:15:09;1.10;;;0.60;;
77105;SDS011;66057;54.718;18.426;2024-01-16T04:17:39;0.90;;;0.13;;
77105;SDS011;66057;54.718;18.426;2024-01-16T04:20:05;23.55;;;1.58;;
77105;SDS011;66057;54.718;18.426;2024-01-16T04:22:34;0.73;;;0.68;;
77105;SDS011;66057;54.718;18.426;2024-01-16T04:25:01;0.68;;;0.68;;
77105;SDS011;66057;54.718;18.426;2024-01-16T04:27:30;0.65;;;0.65;;
77105;SDS011;66057;54.718;18.426;2024-01-16T04:29:57;0.60;;;0.60;;
77105;SDS011;66057;54.718;18.426;2024-01-16T04:32:23;0.98;;;0.95;;
77105;SDS011;66057;54.718;18.426;2024-01-16T04:34:59;0.55;;;0.00;;
77105;SDS011;66057;54.718;18.426;2024-01-16T04:37:26;0.70;;;0.50;;
77105;SDS011;66057;54.718;18.426;2024-01-16T04:39:52;0.47;;;0.47;;
77105;SDS011;66057;54.718;18.426;2024-01-16T04:42:19;2.03;;;0.30;;
77105;SDS011;66057;54.718;18.426;2024-01-16T04:44:45;0.30;;;0.30;;
77105;SDS011;66057;54.718;18.426;2024-01-16T04:47:11;0.70;;;0.70;;
77105;SDS011;66057;54.718;18.426;2024-01-16T04:49:37;3.10;;;0.32;;
77105;SDS011;66057;54.718;18.426;2024-01-16T04:52:05;0.70;;;0.68;;
77105;SDS011;66057;54.718;18.426;2024-01-16T04:54:35;0.20;;;0.20;;
77105;SDS011;66057;54.718;18.426;2024-01-16T04:57:01;2.08;;;0.55;;
77105;SDS011;66057;54.718;18.426;2024-01-16T04:59:30;1.50;;;1.35;;
77105;SDS011;66057;54.718;18.426;2024-01-16T05:01:56;1.20;;;0.30;;
77105;SDS011;66057;54.718;18.426;2024-01-16T05:04:25;0.50;;;0.30;;
77105;SDS011;66057;54.718;18.426;2024-01-16T05:09:18;0.45;;;0.20;;
77105;SDS011;66057;54.718;18.426;2024-01-16T05:11:47;3.60;;;0.82;;
77105;SDS011;66057;54.718;18.426;2024-01-16T05:14:13;0.47;;;0.28;;
77105;SDS011;66057;54.718;18.426;2024-01-16T05:16:40;0.88;;;0.73;;
77105;SDS011;66057;54.718;18.426;2024-01-16T05:19:11;1.45;;;0.40;;
77105;SDS011;66057;54.718;18.426;2024-01-16T05:21:37;0.32;;;0.32;;
77105;SDS011;66057;54.718;18.426;2024-01-16T05:24:07;0.93;;;0.43;;
77105;SDS011;66057;54.718;18.426;2024-01-16T05:26:33;0.30;;;0.13;;
77105;SDS011;66057;54.718;18.426;2024-01-16T05:28:59;2.00;;;0.45;;
77105;SDS011;66057;54.718;18.426;2024-01-16T05:31:25;0.77;;;0.57;;
77105;SDS011;66057;54.718;18.426;2024-01-16T05:33:52;0.90;;;0.40;;
77105;SDS011;66057;54.718;18.426;2024-01-16T05:36:18;0.77;;;0.77;;
77105;SDS011;66057;54.718;18.426;2024-01-16T05:38:44;0.50;;;0.50;;
77105;SDS011;66057;54.718;18.426;2024-01-16T05:41:10;0.50;;;0.10;;
77105;SDS011;66057;54.718;18.426;2024-01-16T05:43:37;0.65;;;0.65;;
77105;SDS011;66057;54.718;18.426;2024-01-16T05:46:03;1.33;;;0.30;;
77105;SDS011;66057;54.718;18.426;2024-01-16T05:48:29;0.47;;;0.15;;
77105;SDS011;66057;54.718;18.426;2024-01-16T05:50:55;2.40;;;0.55;;
77105;SDS011;66057;54.718;18.426;2024-01-16T05:53:27;0.60;;;0.60;;
77105;SDS011;66057;54.718;18.426;2024-01-16T05:55:54;0.55;;;0.50;;
77105;SDS011;66057;54.718;18.426;2024-01-16T05:58:21;0.55;;;0.55;;
77105;SDS011;66057;54.718;18.426;2024-01-16T06:00:48;0.22;;;0.22;;
77105;SDS011;66057;54.718;18.426;2024-01-16T06:03:17;0.30;;;0.30;;
77105;SDS011;66057;54.718;18.426;2024-01-16T06:05:46;0.43;;;0.43;;
77105;SDS011;66057;54.718;18.426;2024-01-16T06:08:12;0.75;;;0.68;;
77105;SDS011;66057;54.718;18.426;2024-01-16T06:10:39;1.50;;;0.68;;
77105;SDS011;66057;54.718;18.426;2024-01-16T06:13:05;0.32;;;0.32;;
77105;SDS011;66057;54.718;18.426;2024-01-16T06:15:31;1.60;;;0.68;;
77105;SDS011;66057;54.718;18.426;2024-01-16T06:18:05;1.08;;;0.98;;
77105;SDS011;66057;54.718;18.426;2024-01-16T06:20:31;0.60;;;0.60;;
77105;SDS011;66057;54.718;18.426;2024-01-16T06:23:01;0.68;;;0.35;;
77105;SDS011;66057;54.718;18.426;2024-01-16T06:25:27;0.90;;;0.40;;
77105;SDS011;66057;54.718;18.426;2024-01-16T06:27:54;2.80;;;0.52;;
77105;SDS011;66057;54.718;18.426;2024-01-16T06:30:24;1.35;;;0.70;;
77105;SDS011;66057;54.718;18.426;2024-01-16T06:32:50;0.73;;;0.70;;
77105;SDS011;66057;54.718;18.426;2024-01-16T06:35:16;1.25;;;0.80;;
77105;SDS011;66057;54.718;18.426;2024-01-16T06:37:42;0.20;;;0.10;;
77105;SDS011;66057;54.718;18.426;2024-01-16T06:40:09;0.55;;;0.50;;
77105;SDS011;66057;54.718;18.426;2024-01-16T06:42:35;1.55;;;0.73;;
77105;SDS011;66057;54.718;18.426;2024-01-16T06:45:03;1.38;;;0.55;;
77105;SDS011;66057;54.718;18.426;2024-01-16T06:47:31;1.10;;;0.50;;
77105;SDS011;66057;54.718;18.426;2024-01-16T06:49:57;4.05;;;0.80;;
77105;SDS011;66057;54.718;18.426;2024-01-16T06:52:22;0.50;;;0.50;;
77105;SDS011;66057;54.718;18.426;2024-01-16T06:54:48;0.63;;;0.40;;
77105;SDS011;66057;54.718;18.426;2024-01-16T06:57:14;0.40;;;0.30;;
77105;SDS011;66057;54.718;18.426;2024-01-16T06:59:40;0.10;;;0.10;;
77105;SDS011;66057;54.718;18.426;2024-01-16T07:02:06;1.25;;;0.73;;
77105;SDS011;66057;54.718;18.426;2024-01-16T07:04:33;0.63;;;0.60;;
77105;SDS011;66057;54.718;18.426;2024-01-16T07:06:59;0.55;;;0.55;;
77105;SDS011;66057;54.718;18.426;2024-01-16T07:09:26;1.00;;;0.80;;
77105;SDS011;66057;54.718;18.426;2024-01-16T07:11:52;1.58;;;0.50;;
77105;SDS011;66057;54.718;18.426;2024-01-16T07:14:20;0.50;;;0.45;;
77105;SDS011;66057;54.718;18.426;2024-01-16T07:16:46;0.38;;;0.38;;
77105;SDS011;66057;54.718;18.426;2024-01-16T07:19:14;1.10;;;0.15;;
77105;SDS011;66057;54.718;18.426;2024-01-16T07:21:42;0.75;;;0.57;;
77105;SDS011;66057;54.718;18.426;2024-01-16T07:24:10;1.27;;;0.32;;
77105;SDS011;66057;54.718;18.426;2024-01-16T07:26:42;1.77;;;1.38;;
77105;SDS011;66057;54.718;18.426;2024-01-16T07:29:11;1.98;;;0.98;;
77105;SDS011;66057;54.718;18.426;2024-01-16T07:31:37;2.05;;;0.38;;
77105;SDS011;66057;54.718;18.426;2024-01-16T07:34:03;1.95;;;0.73;;
77105;SDS011;66057;54.718;18.426;2024-01-16T07:36:34;0.10;;;0.10;;
77105;SDS011;66057;54.718;18.426;2024-01-16T07:39:09;0.28;;;0.28;;
77105;SDS011;66057;54.718;18.426;2024-01-16T07:41:36;2.30;;;0.30;;
77105;SDS011;66057;54.718;18.426;2024-01-16T07:44:03;0.90;;;0.22;;
77105;SDS011;66057;54.718;18.426;2024-01-16T07:46:29;0.88;;;0.43;;
77105;SDS011;66057;54.718;18.426;2024-01-16T07:48:55;0.35;;;0.25;;
77105;SDS011;66057;54.718;18.426;2024-01-16T07:51:20;0.60;;;0.60;;
77105;SDS011;66057;54.718;18.426;2024-01-16T07:53:47;1.17;;;0.52;;
77105;SDS011;66057;54.718;18.426;2024-01-16T07:56:15;0.57;;;0.57;;
77105;SDS011;66057;54.718;18.426;2024-01-16T07:58:41;0.52;;;0.52;;
77105;SDS011;66057;54.718;18.426;2024-01-16T08:01:07;0.60;;;0.60;;
77105;SDS011;66057;54.718;18.426;2024-01-16T08:03:33;0.68;;;0.68;;
77105;SDS011;66057;54.718;18.426;2024-01-16T08:05:59;0.82;;;0.82;;
77105;SDS011;66057;54.718;18.426;2024-01-16T08:08:25;0.35;;;0.17;;
77105;SDS011;66057;54.718;18.426;2024-01-16T08:10:56;1.85;;;0.08;;
77105;SDS011;66057;54.718;18.426;2024-01-16T08:13:22;0.30;;;0.30;;
77105;SDS011;66057;54.718;18.426;2024-01-16T08:15:48;1.23;;;0.30;;
77105;SDS011;66057;54.718;18.426;2024-01-16T08:18:14;3.00;;;0.50;;
77105;SDS011;66057;54.718;18.426;2024-01-16T08:20:42;0.60;;;0.60;;
77105;SDS011;66057;54.718;18.426;2024-01-16T08:23:08;0.70;;;0.50;;
77105;SDS011;66057;54.718;18.426;2024-01-16T08:25:39;1.70;;;0.95;;
77105;SDS011;66057;54.718;18.426;2024-01-16T08:28:05;0.77;;;0.77;;
77105;SDS011;66057;54.718;18.426;2024-01-16T08:30:31;0.55;;;0.30;;
77105;SDS011;66057;54.718;18.426;2024-01-16T08:32:57;0.50;;;0.50;;
77105;SDS011;66057;54.718;18.426;2024-01-16T08:35:23;1.83;;;0.68;;
77105;SDS011;66057;54.718;18.426;2024-01-16T08:37:49;0.70;;;0.70;;
77105;SDS011;66057;54.718;18.426;2024-01-16T08:40:15;1.05;;;0.98;;
77105;SDS011;66057;54.718;18.426;2024-01-16T08:42:47;3.25;;;1.33;;
77105;SDS011;66057;54.718;18.426;2024-01-16T08:45:17;0.57;;;0.57;;
77105;SDS011;66057;54.718;18.426;2024-01-16T08:47:44;0.73;;;0.43;;
77105;SDS011;66057;54.718;18.426;2024-01-16T08:50:10;1.83;;;1.00;;
77105;SDS011;66057;54.718;18.426;2024-01-16T08:52:36;1.38;;;0.38;;
77105;SDS011;66057;54.718;18.426;2024-01-16T08:55:02;1.05;;;0.22;;
77105;SDS011;66057;54.718;18.426;2024-01-16T08:57:28;0.50;;;0.50;;
77105;SDS011;66057;54.718;18.426;2024-01-16T08:59:54;0.50;;;0.50;;
77105;SDS011;66057;54.718;18.426;2024-01-16T09:02:21;1.10;;;0.60;;
77105;SDS011;66057;54.718;18.426;2024-01-16T09:04:47;1.00;;;1.00;;
77105;SDS011;66057;54.718;18.426;2024-01-16T09:07:16;0.57;;;0.57;;
77105;SDS011;66057;54.718;18.426;2024-01-16T09:09:42;0.60;;;0.60;;
77105;SDS011;66057;54.718;18.426;2024-01-16T09:12:09;0.65;;;0.28;;
77105;SDS011;66057;54.718;18.426;2024-01-16T09:14:35;1.05;;;0.60;;
77105;SDS011;66057;54.718;18.426;2024-01-16T09:17:01;0.85;;;0.63;;
77105;SDS011;66057;54.718;18.426;2024-01-16T09:19:28;0.77;;;0.68;;
77105;SDS011;66057;54.718;18.426;2024-01-16T09:21:55;0.88;;;0.85;;
77105;SDS011;66057;54.718;18.426;2024-01-16T09:24:21;2.30;;;1.33;;
77105;SDS011;66057;54.718;18.426;2024-01-16T09:26:47;1.65;;;1.23;;
77105;SDS011;66057;54.718;18.426;2024-01-16T09:29:13;4.57;;;1.23;;
77105;SDS011;66057;54.718;18.426;2024-01-16T09:31:41;2.25;;;0.77;;
77105;SDS011;66057;54.718;18.426;2024-01-16T09:34:07;0.30;;;0.28;;
77105;SDS011;66057;54.718;18.426;2024-01-16T09:36:33;0.50;;;0.50;;
77105;SDS011;66057;54.718;18.426;2024-01-16T09:39:01;0.03;;;0.03;;
77105;SDS011;66057;54.718;18.426;2024-01-16T09:41:28;0.88;;;0.73;;
77105;SDS011;66057;54.718;18.426;2024-01-16T09:43:57;1.45;;;1.08;;
77105;SDS011;66057;54.718;18.426;2024-01-16T09:46:23;0.85;;;0.73;;
77105;SDS011;66057;54.718;18.426;2024-01-16T09:51:18;0.95;;;0.82;;
77105;SDS011;66057;54.718;18.426;2024-01-16T09:53:44;1.35;;;0.38;;
77105;SDS011;66057;54.718;18.426;2024-01-16T09:56:16;0.55;;;0.40;;
77105;SDS011;66057;54.718;18.426;2024-01-16T09:58:42;0.95;;;0.77;;
77105;SDS011;66057;54.718;18.426;2024-01-16T10:01:12;0.52;;;0.52;;
77105;SDS011;66057;54.718;18.426;2024-01-16T10:03:39;1.95;;;1.52;;
77105;SDS011;66057;54.718;18.426;2024-01-16T10:06:09;1.55;;;0.73;;
77105;SDS011;66057;54.718;18.426;2024-01-16T10:08:36;1.13;;;1.02;;
77105;SDS011;66057;54.718;18.426;2024-01-16T10:11:02;0.77;;;0.77;;
77105;SDS011;66057;54.718;18.426;2024-01-16T10:13:28;3.13;;;1.88;;
77105;SDS011;66057;54.718;18.426;2024-01-16T10:15:55;1.05;;;0.82;;
77105;SDS011;66057;54.718;18.426;2024-01-16T10:18:24;0.70;;;0.70;;
77105;SDS011;66057;54.718;18.426;2024-01-16T10:20:51;1.15;;;0.50;;
77105;SDS011;66057;54.718;18.426;2024-01-16T10:23:25;0.68;;;0.55;;
77105;SDS011;66057;54.718;18.426;2024-01-16T10:28:35;2.03;;;1.33;;
77105;SDS011;66057;54.718;18.426;2024-01-16T10:31:04;3.03;;;1.35;;
77105;SDS011;66057;54.718;18.426;2024-01-16T10:33:30;0.63;;;0.63;;
77105;SDS011;66057;54.718;18.426;2024-01-16T10:36:12;1.33;;;1.00;;
77105;SDS011;66057;54.718;18.426;2024-01-16T10:38:40;0.75;;;0.75;;
77105;SDS011;66057;54.718;18.426;2024-01-16T10:43:43;1.38;;;0.93;;
77105;SDS011;66057;54.718;18.426;2024-01-16T10:46:13;0.68;;;0.68;;
77105;SDS011;66057;54.718;18.426;2024-01-16T10:51:07;0.43;;;0.43;;
77105;SDS011;66057;54.718;18.426;2024-01-16T10:53:34;1.13;;;1.13;;
77105;SDS011;66057;54.718;18.426;2024-01-16T10:56:01;2.80;;;1.45;;
77105;SDS011;66057;54.718;18.426;2024-01-16T10:58:28;1.55;;;0.80;;
77105;SDS011;66057;54.718;18.426;2024-01-16T11:00:57;0.50;;;0.50;;
77105;SDS011;66057;54.718;18.426;2024-01-16T11:06:05;1.45;;;1.10;;
77105;SDS011;66057;54.718;18.426;2024-01-16T11:08:34;9.85;;;2.33;;
77105;SDS011;66057;54.718;18.426;2024-01-16T11:11:02;2.05;;;0.70;;
77105;SDS011;66057;54.718;18.426;2024-01-16T11:13:36;0.55;;;0.55;;
77105;SDS011;66057;54.718;18.426;2024-01-16T11:16:02;1.83;;;1.70;;
77105;SDS011;66057;54.718;18.426;2024-01-16T11:18:33;1.23;;;0.52;;
77105;SDS011;66057;54.718;18.426;2024-01-16T11:21:01;0.38;;;0.38;;
77105;SDS011;66057;54.718;18.426;2024-01-16T11:23:29;0.57;;;0.57;;
77105;SDS011;66057;54.718;18.426;2024-01-16T11:25:55;1.50;;;0.30;;
77105;SDS011;66057;54.718;18.426;2024-01-16T11:28:26;0.82;;;0.80;;
77105;SDS011;66057;54.718;18.426;2024-01-16T11:30:55;0.00;;;0.00;;
77105;SDS011;66057;54.718;18.426;2024-01-16T11:35:59;0.25;;;0.22;;
77105;SDS011;66057;54.718;18.426;2024-01-16T11:38:25;0.20;;;0.20;;
77105;SDS011;66057;54.718;18.426;2024-01-16T11:40:54;0.60;;;0.60;;
77105;SDS011;66057;54.718;18.426;2024-01-16T11:45:59;1.55;;;0.80;;
77105;SDS011;66057;54.718;18.426;2024-01-16T11:48:26;0.98;;;0.85;;
77105;SDS011;66057;54.718;18.426;2024-01-16T11:50:53;1.70;;;0.88;;
77105;SDS011;66057;54.718;18.426;2024-01-16T11:53:38;4.32;;;0.60;;
77105;SDS011;66057;54.718;18.426;2024-01-16T11:58:45;1.00;;;0.63;;
77105;SDS011;66057;54.718;18.426;2024-01-16T12:01:22;0.32;;;0.25;;
77105;SDS011;66057;54.718;18.426;2024-01-16T12:04:01;0.80;;;0.80;;
77105;SDS011;66057;54.718;18.426;2024-01-16T12:06:29;0.50;;;0.50;;
77105;SDS011;66057;54.718;18.426;2024-01-16T12:08:54;0.22;;;0.22;;
77105;SDS011;66057;54.718;18.426;2024-01-16T12:11:36;0.65;;;0.60;;
77105;SDS011;66057;54.718;18.426;2024-01-16T12:14:01;0.95;;;0.70;;
77105;SDS011;66057;54.718;18.426;2024-01-16T12:16:29;1.95;;;0.95;;
77105;SDS011;66057;54.718;18.426;2024-01-16T12:19:07;0.35;;;0.30;;
77105;SDS011;66057;54.718;18.426;2024-01-16T12:21:43;0.52;;;0.50;;
77105;SDS011;66057;54.718;18.426;2024-01-16T12:24:10;0.75;;;0.50;;
77105;SDS011;66057;54.718;18.426;2024-01-16T12:26:36;0.35;;;0.13;;
77105;SDS011;66057;54.718;18.426;2024-01-16T12:29:03;2.65;;;1.45;;
77105;SDS011;66057;54.718;18.426;2024-01-16T12:31:29;0.60;;;0.60;;
77105;SDS011;66057;54.718;18.426;2024-01-16T12:34:04;0.65;;;0.65;;
77105;SDS011;66057;54.718;18.426;2024-01-16T12:36:31;0.55;;;0.47;;
77105;SDS011;66057;54.718;18.426;2024-01-16T12:38:56;0.30;;;0.30;;
77105;SDS011;66057;54.718;18.426;2024-01-16T12:41:22;0.22;;;0.22;;
77105;SDS011;66057;54.718;18.426;2024-01-16T12:43:52;3.08;;;1.40;;
77105;SDS011;66057;54.718;18.426;2024-01-16T12:46:18;1.17;;;0.45;;
77105;SDS011;66057;54.718;18.426;2024-01-16T12:48:44;1.85;;;1.13;;
77105;SDS011;66057;54.718;18.426;2024-01-16T12:51:16;1.00;;;0.60;;
77105;SDS011;66057;54.718;18.426;2024-01-16T12:53:46;0.03;;;0.03;;
77105;SDS011;66057;54.718;18.426;2024-01-16T12:56:13;0.20;;;0.20;;
77105;SDS011;66057;54.718;18.426;2024-01-16T12:58:44;0.20;;;0.20;;
77105;SDS011;66057;54.718;18.426;2024-01-16T13:01:26;0.28;;;0.28;;
77105;SDS011;66057;54.718;18.426;2024-01-16T13:03:53;0.65;;;0.45;;
77105;SDS011;66057;54.718;18.426;2024-01-16T13:06:21;0.32;;;0.20;;
77105;SDS011;66057;54.718;18.426;2024-01-16T13:08:49;0.68;;;0.32;;
77105;SDS011;66057;54.718;18.426;2024-01-16T13:11:15;0.30;;;0.17;;
77105;SDS011;66057;54.718;18.426;2024-01-16T13:13:48;0.03;;;0.00;;
77105;SDS011;66057;54.718;18.426;2024-01-16T13:16:26;0.40;;;0.35;;
77105;SDS011;66057;54.718;18.426;2024-01-16T13:18:59;1.00;;;0.65;;
77105;SDS011;66057;54.718;18.426;2024-01-16T13:21:25;0.25;;;0.20;;
77105;SDS011;66057;54.718;18.426;2024-01-16T13:23:51;0.50;;;0.50;;
77105;SDS011;66057;54.718;18.426;2024-01-16T13:26:17;2.15;;;1.10;;
77105;SDS011;66057;54.718;18.426;2024-01-16T13:28:42;1.90;;;0.70;;
77105;SDS011;66057;54.718;18.426;2024-01-16T13:31:08;7.88;;;1.08;;
77105;SDS011;66057;54.718;18.426;2024-01-16T13:33:34;0.77;;;0.28;;
77105;SDS011;66057;54.718;18.426;2024-01-16T13:35:59;0.88;;;0.88;;
77105;SDS011;66057;54.718;18.426;2024-01-16T13:38:25;0.85;;;0.63;;
77105;SDS011;66057;54.718;18.426;2024-01-16T13:40:51;1.40;;;0.77;;
77105;SDS011;66057;54.718;18.426;2024-01-16T13:43:16;1.27;;;1.10;;
77105;SDS011;66057;54.718;18.426;2024-01-16T13:45:42;2.45;;;1.38;;
77105;SDS011;66057;54.718;18.426;2024-01-16T13:48:08;4.47;;;2.38;;
77105;SDS011;66057;54.718;18.426;2024-01-16T13:50:35;5.00;;;0.90;;
77105;SDS011;66057;54.718;18.426;2024-01-16T13:53:01;2.40;;;1.35;;
77105;SDS011;66057;54.718;18.426;2024-01-16T13:55:27;1.30;;;0.50;;
77105;SDS011;66057;54.718;18.426;2024-01-16T13:57:54;0.65;;;0.60;;
77105;SDS011;66057;54.718;18.426;2024-01-16T14:00:19;3.58;;;1.92;;
77105;SDS011;66057;54.718;18.426;2024-01-16T14:02:46;7.00;;;2.25;;
77105;SDS011;66057;54.718;18.426;2024-01-16T14:05:19;7.20;;;2.17;;
77105;SDS011;66057;54.718;18.426;2024-01-16T14:07:45;6.90;;;3.58;;
77105;SDS011;66057;54.718;18.426;2024-01-16T14:10:14;8.50;;;4.20;;
77105;SDS011;66057;54.718;18.426;2024-01-16T14:12:40;4.43;;;4.03;;
77105;SDS011;66057;54.718;18.426;2024-01-16T14:15:08;9.18;;;2.60;;
77105;SDS011;66057;54.718;18.426;2024-01-16T14:17:48;17.55;;;4.40;;
77105;SDS011;66057;54.718;18.426;2024-01-16T14:20:15;3.42;;;2.47;;
77105;SDS011;66057;54.718;18.426;2024-01-16T14:22:42;4.45;;;1.95;;
77105;SDS011;66057;54.718;18.426;2024-01-16T14:25:09;2.92;;;2.28;;
77105;SDS011;66057;54.718;18.426;2024-01-16T14:27:38;4.00;;;1.10;;
77105;SDS011;66057;54.718;18.426;2024-01-16T14:30:12;6.82;;;2.92;;
77105;SDS011;66057;54.718;18.426;2024-01-16T14:32:40;5.35;;;2.90;;
77105;SDS011;66057;54.718;18.426;2024-01-16T14:35:06;14.80;;;4.15;;
77105;SDS011;66057;54.718;18.426;2024-01-16T14:37:34;5.30;;;3.25;;
77105;SDS011;66057;54.718;18.426;2024-01-16T14:40:02;4.38;;;2.75;;
77105;SDS011;66057;54.718;18.426;2024-01-16T14:42:32;11.75;;;3.35;;
77105;SDS011;66057;54.718;18.426;2024-01-16T14:47:25;3.65;;;3.33;;
77105;SDS011;66057;54.718;18.426;2024-01-16T14:49:51;3.80;;;2.03;;
77105;SDS011;66057;54.718;18.426;2024-01-16T14:52:20;1.45;;;1.45;;
77105;SDS011;66057;54.718;18.426;2024-01-16T14:54:46;1.00;;;1.00;;
77105;SDS011;66057;54.718;18.426;2024-01-16T14:57:11;1.80;;;1.23;;
77105;SDS011;66057;54.718;18.426;2024-01-16T14:59:37;4.28;;;1.90;;
77105;SDS011;66057;54.718;18.426;2024-01-16T15:02:03;5.53;;;1.83;;